KROX/ROX METAR and TAF weather

Enter ICAO airport designator
Station Type Date Time Source
KROX METAR 2019/06/17 05:24 UTC NOAA

KROX 170524Z AUTO 09006KT 10SM BKN009 OVC024 13/10 A2990 RMK AO2


Station Type Date Time Source
KROX Decoded METAR 2019/06/17 05:24 UTC NOAA

Roseau, Roseau Municipal Airport/Rudy Billberg Field, MN, United States (KROX) 48-51N 095-42W
Jun 17, 2019 - 01:24 AM EDT / 2019.06.17 0524 UTC
Wind: from the E (090 degrees) at 7 MPH (6 KT):0
Visibility: 10 mile(s):0
Sky conditions: overcast
Temperature: 55 F (13 C)
Dew Point: 50 F (10 C)
Relative Humidity: 81%
Pressure (altimeter): 29.9 in. Hg (1012 hPa)
ob: KROX 170524Z AUTO 09006KT 10SM BKN009 OVC024 13/10 A2990 RMK AO2
cycle: 5

Station Type Date Time Source
KROX TAF UTC NOAA

Error!

Example: see airport list